Time;durP1;ratioP1;P1;durP2;ratioP2;P2;SDS_P1;SDS_P2;PMS_P1;PMS_P2;Temp;Humidity;BMP_temperature;BMP_pressure;BME280_temperature;BME280_humidity;BME280_pressure;Samples;Min_cycle;Max_cycle;Signal;HPM_P1;HPM_P2
2022/03/13 00:00:48;;;;;;;28.83;25.85;;;;;22.20;100538.00;;;;2077618;28;20210;-50
2022/03/13 00:01:48;;;;;;;25.52;23.00;;;;;22.10;100527.00;;;;2079096;28;20225;-50
2022/03/13 00:02:52;;;;;;;25.43;22.77;;;;;22.10;100523.00;;;;2077864;28;21160;-54
2022/03/13 00:03:52;;;;;;;25.25;22.75;;;;;22.10;100525.00;;;;2079330;28;20677;-51
2022/03/13 00:04:54;;;;;;;24.10;21.30;;;;;22.10;100520.00;;;;2079015;28;20217;-51
2022/03/13 00:05:54;;;;;;;23.95;21.42;;;;;22.10;100518.00;;;;2077361;28;20556;-50
2022/03/13 00:06:55;;;;;;;24.60;22.10;;;;;22.10;100515.00;;;;2078925;28;20220;-52
2022/03/13 00:07:56;;;;;;;25.48;22.75;;;;;22.10;100523.00;;;;2079136;28;20210;-51
2022/03/13 00:08:58;;;;;;;22.53;20.23;;;;;22.10;100519.00;;;;2074702;28;20207;-50
2022/03/13 00:09:58;;;;;;;23.92;21.42;;;;;22.10;100520.00;;;;2075504;28;20452;-50
2022/03/13 00:11:01;;;;;;;22.67;20.33;;;;;22.10;100524.00;;;;2078494;28;20766;-50
2022/03/13 00:12:03;;;;;;;24.05;21.58;;;;;22.10;100524.00;;;;2079106;28;20224;-50
2022/03/13 00:13:04;;;;;;;22.90;20.70;;;;;22.10;100520.00;;;;2070976;28;20206;-50
2022/03/13 00:14:06;;;;;;;23.90;21.52;;;;;22.10;100518.00;;;;2071046;28;20210;-50
2022/03/13 00:15:12;;;;;;;21.42;19.38;;;;;22.10;100520.00;;;;2076228;28;20701;-50
2022/03/13 00:16:12;;;;;;;22.05;19.90;;;;;22.10;100518.00;;;;2078481;28;20290;-50
2022/03/13 00:17:17;;;;;;;21.97;19.70;;;;;22.10;100519.00;;;;2078937;28;20263;-50
2022/03/13 00:18:21;;;;;;;22.05;19.85;;;;;22.10;100519.00;;;;2078939;28;20221;-50
2022/03/13 00:19:24;;;;;;;20.65;18.65;;;;;22.10;100520.00;;;;2078175;28;20220;-51
2022/03/13 00:20:24;;;;;;;20.92;18.75;;;;;22.10;100533.00;;;;2078800;28;20209;-51
2022/03/13 00:21:24;;;;;;;19.80;17.80;;;;;22.00;100522.00;;;;2078869;28;20356;-51
2022/03/13 00:22:25;;;;;;;20.97;18.97;;;;;22.10;100526.00;;;;2079195;28;20213;-50
2022/03/13 00:23:25;;;;;;;22.90;20.50;;;;;22.10;100524.00;;;;2079028;28;20665;-51
2022/03/13 00:24:26;;;;;;;20.57;18.40;;;;;22.10;100524.00;;;;2079024;28;21068;-51
2022/03/13 00:25:27;;;;;;;20.70;18.47;;;;;22.10;100516.00;;;;2078363;28;20213;-50
2022/03/13 00:26:28;;;;;;;19.90;17.83;;;;;22.00;100519.00;;;;2071563;28;20214;-50
2022/03/13 00:27:31;;;;;;;19.43;17.60;;;;;22.00;100527.00;;;;2070305;28;20312;-51
2022/03/13 00:28:31;;;;;;;21.02;18.92;;;;;22.10;100524.00;;;;2070726;28;20218;-50
2022/03/13 00:29:31;;;;;;;21.30;19.20;;;;;22.00;100524.00;;;;2070697;28;20206;-50
2022/03/13 00:30:32;;;;;;;19.77;17.87;;;;;22.00;100518.00;;;;2070632;28;20214;-50
2022/03/13 00:31:32;;;;;;;19.60;17.70;;;;;22.00;100521.00;;;;2070653;28;20202;-50
2022/03/13 00:32:32;;;;;;;18.33;16.63;;;;;22.00;100514.00;;;;2071145;28;20249;-50
2022/03/13 00:33:33;;;;;;;18.67;16.70;;;;;22.00;100524.00;;;;2070901;28;20349;-50
2022/03/13 00:34:33;;;;;;;20.50;18.40;;;;;22.00;100513.00;;;;2069879;28;20214;-50
2022/03/13 00:35:34;;;;;;;18.23;16.33;;;;;22.00;100513.00;;;;2070188;28;20218;-50
2022/03/13 00:36:34;;;;;;;17.53;15.83;;;;;22.00;100523.00;;;;2070912;28;20226;-50
2022/03/13 00:37:34;;;;;;;17.80;15.90;;;;;22.00;100524.00;;;;2070769;28;20331;-50
2022/03/13 00:38:35;;;;;;;18.37;16.47;;;;;22.00;100517.00;;;;2070435;28;20214;-50
2022/03/13 00:39:38;;;;;;;17.80;16.10;;;;;22.00;100515.00;;;;2070118;28;20221;-50
2022/03/13 00:40:40;;;;;;;16.98;15.38;;;;;22.00;100524.00;;;;2070906;28;20594;-50
2022/03/13 00:41:41;;;;;;;18.55;16.75;;;;;22.00;100520.00;;;;2070420;28;20210;-50
2022/03/13 00:42:41;;;;;;;18.47;16.57;;;;;22.00;100514.00;;;;2070700;28;20210;-50
2022/03/13 00:43:41;;;;;;;17.23;15.57;;;;;22.00;100517.00;;;;2070724;28;20627;-50
2022/03/13 00:44:42;;;;;;;18.60;16.73;;;;;22.00;100517.00;;;;2070230;28;20221;-50
2022/03/13 00:45:42;;;;;;;15.20;13.77;;;;;22.00;100515.00;;;;2069944;28;20222;-50
2022/03/13 00:46:42;;;;;;;17.03;15.23;;;;;22.00;100521.00;;;;2070665;28;20221;-50
2022/03/13 00:47:43;;;;;;;17.57;15.80;;;;;22.00;100523.00;;;;2070013;28;20229;-50
2022/03/13 00:48:43;;;;;;;16.80;15.10;;;;;22.00;100524.00;;;;2069632;28;20230;-50
2022/03/13 00:49:45;;;;;;;15.80;14.23;;;;;22.00;100520.00;;;;2070292;28;20308;-50
2022/03/13 00:50:45;;;;;;;17.20;15.40;;;;;22.00;100517.00;;;;2069091;28;20218;-50
2022/03/13 00:51:45;;;;;;;16.60;14.97;;;;;22.00;100517.00;;;;2074783;28;20269;-50
2022/03/13 00:52:46;;;;;;;16.03;14.40;;;;;22.00;100517.00;;;;2078090;28;20604;-50
2022/03/13 00:53:46;;;;;;;15.80;14.17;;;;;22.00;100506.00;;;;2078461;28;20677;-50
2022/03/13 00:54:47;;;;;;;15.10;13.60;;;;;21.90;100512.00;;;;2076213;28;20443;-51
2022/03/13 00:55:47;;;;;;;14.97;13.53;;;;;21.90;100508.00;;;;2077233;28;20218;-50
2022/03/13 00:56:47;;;;;;;16.63;14.93;;;;;21.90;100515.00;;;;2078314;28;20573;-50
2022/03/13 00:57:48;;;;;;;15.70;14.17;;;;;21.90;100511.00;;;;2077945;28;20690;-50
2022/03/13 00:58:48;;;;;;;15.30;13.90;;;;;22.00;100506.00;;;;2077854;28;20217;-50
2022/03/13 00:59:48;;;;;;;15.57;13.97;;;;;21.90;100508.00;;;;2077480;28;20213;-50
2022/03/13 01:00:49;;;;;;;14.33;12.93;;;;;21.90;100510.00;;;;2077119;28;20221;-50
2022/03/13 01:01:49;;;;;;;14.13;12.83;;;;;21.90;100506.00;;;;2078765;28;20213;-50
2022/03/13 01:02:49;;;;;;;14.00;12.67;;;;;21.90;100508.00;;;;2076427;28;20252;-50
2022/03/13 01:03:51;;;;;;;13.70;12.30;;;;;21.90;100503.00;;;;2078370;28;20209;-50
2022/03/13 01:04:51;;;;;;;14.80;13.23;;;;;21.90;100502.00;;;;2076911;28;20303;-50
2022/03/13 01:05:51;;;;;;;13.70;12.40;;;;;21.90;100509.00;;;;2078015;28;20676;-50
2022/03/13 01:06:52;;;;;;;14.60;13.30;;;;;21.90;100510.00;;;;2078568;28;20217;-50
2022/03/13 01:07:53;;;;;;;14.27;12.87;;;;;21.90;100505.00;;;;2078350;28;20229;-50
2022/03/13 01:08:53;;;;;;;15.20;13.80;;;;;21.90;100498.00;;;;2072585;28;20254;-50
2022/03/13 01:09:54;;;;;;;14.47;13.07;;;;;21.90;100508.00;;;;2069911;28;20222;-50
2022/03/13 01:10:54;;;;;;;14.17;12.73;;;;;21.90;100504.00;;;;2070623;28;20210;-50
2022/03/13 01:11:54;;;;;;;11.97;10.77;;;;;21.90;100500.00;;;;2072180;28;20222;-50
2022/03/13 01:12:55;;;;;;;16.90;15.30;;;;;21.60;100500.00;;;;2070659;28;20217;-51
2022/03/13 01:13:55;;;;;;;16.33;14.70;;;;;21.70;100503.00;;;;2070606;28;20224;-50
2022/03/13 01:14:56;;;;;;;14.00;12.50;;;;;21.80;100503.00;;;;2070641;28;20448;-51
2022/03/13 01:16:20;;;;;;;14.00;12.60;;;;;21.80;100496.00;;;;2070165;28;20674;-51
2022/03/13 01:17:20;;;;;;;13.23;11.80;;;;;21.90;100501.00;;;;2071600;28;20296;-51
2022/03/13 01:18:21;;;;;;;11.87;10.80;;;;;21.80;100493.00;;;;2077918;28;20209;-51
2022/03/13 01:19:21;;;;;;;13.37;12.07;;;;;21.80;100489.00;;;;2078227;28;20217;-51
2022/03/13 01:20:22;;;;;;;12.40;11.20;;;;;21.80;100486.00;;;;2077921;28;20306;-51
2022/03/13 01:21:22;;;;;;;12.23;11.00;;;;;21.80;100485.00;;;;2078046;28;20217;-51
2022/03/13 01:22:22;;;;;;;11.40;10.30;;;;;21.80;100489.00;;;;2078059;28;20221;-51
2022/03/13 01:23:23;;;;;;;11.43;10.20;;;;;21.70;100483.00;;;;2078058;28;20217;-51
2022/03/13 01:24:29;;;;;;;10.20;9.30;;;;;21.80;100482.00;;;;2078538;28;20216;-51
2022/03/13 01:25:30;;;;;;;12.05;10.80;;;;;21.80;100488.00;;;;2077968;28;20213;-51
2022/03/13 01:26:34;;;;;;;11.87;10.77;;;;;21.70;100482.00;;;;2078548;28;20221;-51
2022/03/13 01:27:35;;;;;;;11.02;9.95;;;;;21.70;100484.00;;;;2076794;28;20280;-52
2022/03/13 01:28:35;;;;;;;12.63;11.33;;;;;21.70;100478.00;;;;2077794;28;20306;-52
2022/03/13 01:29:35;;;;;;;11.87;10.67;;;;;21.70;100482.00;;;;2078451;28;20233;-51
2022/03/13 01:30:36;;;;;;;11.20;10.20;;;;;21.70;100475.00;;;;2079284;28;20279;-51
2022/03/13 01:31:37;;;;;;;11.87;10.63;;;;;21.70;100478.00;;;;2079884;28;20222;-51
2022/03/13 01:32:38;;;;;;;11.23;10.23;;;;;21.70;100479.00;;;;2080416;28;20291;-51
2022/03/13 01:33:38;;;;;;;10.27;9.30;;;;;21.70;100477.00;;;;2079490;28;20213;-52
2022/03/13 01:34:43;;;;;;;10.77;9.67;;;;;21.70;100477.00;;;;2074853;28;20240;-51
2022/03/13 01:35:44;;;;;;;11.13;10.02;;;;;21.70;100473.00;;;;2071505;28;20309;-51
2022/03/13 01:36:44;;;;;;;10.60;9.67;;;;;21.60;100474.00;;;;2072076;28;20220;-51
2022/03/13 01:37:44;;;;;;;10.70;9.70;;;;;21.70;100468.00;;;;2072000;28;20571;-51
2022/03/13 01:38:45;;;;;;;11.10;10.00;;;;;21.60;100470.00;;;;2072194;28;20573;-51
2022/03/13 01:39:45;;;;;;;10.43;9.33;;;;;21.60;100467.00;;;;2071517;28;20206;-51
2022/03/13 01:40:45;;;;;;;10.83;9.80;;;;;21.60;100471.00;;;;2072243;28;20210;-51
2022/03/13 01:41:46;;;;;;;11.37;10.30;;;;;21.60;100459.00;;;;2071770;28;20204;-51
2022/03/13 01:42:47;;;;;;;10.00;9.20;;;;;21.60;100467.00;;;;2071277;28;20214;-51
2022/03/13 01:43:48;;;;;;;11.10;10.00;;;;;21.60;100462.00;;;;2071764;28;20261;-51
2022/03/13 01:44:48;;;;;;;9.90;9.00;;;;;21.60;100459.00;;;;2071423;28;20671;-51
2022/03/13 01:45:48;;;;;;;11.13;9.37;;;;;21.60;100460.00;;;;2070754;28;20563;-51
2022/03/13 01:46:49;;;;;;;10.37;9.37;;;;;21.60;100461.00;;;;2071219;28;20214;-51
2022/03/13 01:47:49;;;;;;;9.83;8.90;;;;;21.60;100456.00;;;;2070908;28;20234;-51
2022/03/13 01:49:02;;;;;;;10.20;9.20;;;;;21.60;100459.00;;;;2072078;28;20320;-51
2022/03/13 01:50:03;;;;;;;10.90;9.85;;;;;21.60;100448.00;;;;2071663;28;20569;-51
2022/03/13 01:51:03;;;;;;;10.32;9.32;;;;;21.60;100453.00;;;;2072185;28;20222;-51
2022/03/13 01:52:04;;;;;;;9.93;9.03;;;;;21.60;100447.00;;;;2071923;28;20218;-51
2022/03/13 01:53:04;;;;;;;10.60;9.60;;;;;21.60;100444.00;;;;2071519;28;20210;-51
2022/03/13 01:54:07;;;;;;;10.07;9.07;;;;;21.60;100440.00;;;;2071934;28;20214;-51
2022/03/13 01:55:08;;;;;;;9.68;8.77;;;;;21.60;100441.00;;;;2071675;28;20217;-51
2022/03/13 01:56:08;;;;;;;9.60;8.70;;;;;21.50;100441.00;;;;2075868;28;20625;-52
2022/03/13 01:57:09;;;;;;;10.13;9.07;;;;;21.50;100439.00;;;;2079770;28;20209;-51
2022/03/13 01:58:09;;;;;;;9.90;9.00;;;;;21.50;100437.00;;;;2080078;28;20248;-51
2022/03/13 01:59:10;;;;;;;10.67;9.57;;;;;21.50;100441.00;;;;2080110;28;20217;-51
2022/03/13 02:00:11;;;;;;;9.20;8.40;;;;;21.50;100430.00;;;;2079528;28;20209;-51
2022/03/13 02:01:13;;;;;;;9.48;8.55;;;;;21.50;100439.00;;;;2080249;28;20456;-52
2022/03/13 02:02:13;;;;;;;9.30;8.45;;;;;21.50;100432.00;;;;2079926;28;20241;-52
2022/03/13 02:03:15;;;;;;;10.00;9.10;;;;;21.50;100438.00;;;;2080152;28;20225;-51
2022/03/13 02:04:22;;;;;;;9.18;8.27;;;;;21.50;100434.00;;;;2080172;28;20213;-51
2022/03/13 02:05:29;;;;;;;9.75;8.73;;;;;21.50;100423.00;;;;2079505;28;20689;-50
2022/03/13 02:06:30;;;;;;;10.00;9.10;;;;;21.50;100425.00;;;;2075716;28;20280;-51
2022/03/13 02:07:30;;;;;;;9.60;8.70;;;;;21.50;100420.00;;;;2071899;28;20299;-51
2022/03/13 02:08:30;;;;;;;9.67;8.80;;;;;21.50;100413.00;;;;2071902;28;20224;-51
2022/03/13 02:09:30;;;;;;;9.90;8.90;;;;;21.50;100421.00;;;;2071821;28;20206;-51
2022/03/13 02:10:31;;;;;;;9.70;8.80;;;;;21.50;100414.00;;;;2071833;28;20289;-51
2022/03/13 02:11:40;;;;;;;9.70;8.50;;;;;21.50;100420.00;;;;2071975;28;20268;-51
2022/03/13 02:12:41;;;;;;;9.25;8.40;;;;;21.50;100409.00;;;;2072453;28;20293;-52
2022/03/13 02:13:41;;;;;;;9.80;8.82;;;;;21.50;100406.00;;;;2076414;28;20213;-51
2022/03/13 02:14:42;;;;;;;9.43;8.53;;;;;21.40;100410.00;;;;2071114;28;20242;-51
2022/03/13 02:15:42;;;;;;;9.50;8.70;;;;;21.50;100406.00;;;;2070611;28;20222;-52
2022/03/13 02:16:43;;;;;;;9.37;8.47;;;;;21.50;100408.00;;;;2079807;28;20263;-52
2022/03/13 02:17:43;;;;;;;9.23;8.37;;;;;21.50;100422.00;;;;2079384;28;20225;-51
2022/03/13 02:18:47;;;;;;;9.40;8.40;;;;;21.40;100414.00;;;;2079327;28;20452;-51
2022/03/13 02:19:48;;;;;;;9.60;8.63;;;;;21.40;100418.00;;;;2079194;28;20302;-51
2022/03/13 02:20:48;;;;;;;8.77;7.97;;;;;21.40;100409.00;;;;2079386;28;20209;-51
2022/03/13 02:21:51;;;;;;;9.90;9.00;;;;;21.40;100406.00;;;;2071561;28;20814;-51
2022/03/13 02:22:52;;;;;;;9.07;8.02;;;;;21.40;100406.00;;;;2087551;28;20224;-51
2022/03/13 02:23:59;;;;;;;8.93;8.13;;;;;21.40;100406.00;;;;2085877;28;20271;-50
2022/03/13 02:24:59;;;;;;;9.27;8.38;;;;;21.40;100410.00;;;;2080014;28;20223;-51
2022/03/13 02:26:00;;;;;;;9.17;8.37;;;;;21.40;100402.00;;;;2079396;28;20588;-51
2022/03/13 02:27:05;;;;;;;9.15;8.25;;;;;21.40;100406.00;;;;2079422;28;20232;-51
2022/03/13 02:28:05;;;;;;;8.70;7.90;;;;;21.40;100401.00;;;;2079861;28;20564;-51
2022/03/13 02:29:06;;;;;;;8.77;7.97;;;;;21.40;100405.00;;;;2078195;28;20247;-51
2022/03/13 02:30:08;;;;;;;9.87;8.97;;;;;21.40;100406.00;;;;2078031;28;20221;-51
2022/03/13 02:31:12;;;;;;;9.00;8.10;;;;;21.40;100404.00;;;;2080068;28;20308;-51
2022/03/13 02:32:13;;;;;;;9.88;8.98;;;;;21.40;100403.00;;;;2079332;28;20654;-51
2022/03/13 02:33:16;;;;;;;9.47;8.60;;;;;21.40;100399.00;;;;2079771;28;20243;-51
2022/03/13 02:34:16;;;;;;;8.85;7.95;;;;;21.40;100409.00;;;;2079587;28;20613;-52
2022/03/13 02:35:16;;;;;;;8.83;8.03;;;;;21.40;100405.00;;;;2071842;28;20210;-51
2022/03/13 02:36:27;;;;;;;8.40;7.60;;;;;21.40;100395.00;;;;2071321;28;20217;-51
2022/03/13 02:37:40;;;;;;;9.20;8.50;;;;;21.40;100406.00;;;;2070319;28;20582;-51
2022/03/13 02:38:40;;;;;;;8.93;8.13;;;;;21.30;100402.00;;;;2071162;28;20724;-51
2022/03/13 02:39:41;;;;;;;8.50;7.70;;;;;21.40;100407.00;;;;2071560;28;20218;-51
2022/03/13 02:40:41;;;;;;;8.00;7.30;;;;;21.40;100393.00;;;;2072400;28;20225;-51
2022/03/13 02:41:41;;;;;;;8.40;7.70;;;;;21.40;100394.00;;;;2079526;28;20222;-51
2022/03/13 02:42:42;;;;;;;8.77;8.03;;;;;21.30;100394.00;;;;2080060;28;20217;-51
2022/03/13 02:43:42;;;;;;;8.57;7.83;;;;;21.40;100393.00;;;;2079230;28;20214;-51
2022/03/13 02:44:43;;;;;;;8.37;7.57;;;;;21.30;100384.00;;;;2079021;28;20565;-54
2022/03/13 02:45:43;;;;;;;8.50;7.80;;;;;21.40;100392.00;;;;2079426;28;20217;-53
2022/03/13 02:46:49;;;;;;;8.17;7.47;;;;;21.30;100392.00;;;;2079566;28;20222;-52
2022/03/13 02:47:49;;;;;;;8.38;7.68;;;;;21.30;100385.00;;;;2079096;28;20320;-51
2022/03/13 02:48:50;;;;;;;8.80;8.00;;;;;21.30;100386.00;;;;2079258;28;20213;-51
2022/03/13 02:49:50;;;;;;;9.80;8.53;;;;;21.30;100386.00;;;;2079763;28;20218;-51
2022/03/13 02:50:51;;;;;;;7.97;7.33;;;;;21.30;100391.00;;;;2079826;28;20452;-51
2022/03/13 02:51:54;;;;;;;8.37;7.67;;;;;21.30;100386.00;;;;2079735;28;20237;-51
2022/03/13 02:52:54;;;;;;;8.05;7.35;;;;;21.30;100390.00;;;;2079717;28;20209;-51
2022/03/13 02:53:55;;;;;;;7.90;7.20;;;;;21.30;100380.00;;;;2079767;28;20667;-51
2022/03/13 02:54:55;;;;;;;7.77;7.07;;;;;21.30;100381.00;;;;2079734;28;20245;-51
2022/03/13 02:55:55;;;;;;;9.57;8.00;;;;;21.30;100386.00;;;;2079018;28;20296;-51
2022/03/13 02:56:56;;;;;;;8.57;7.77;;;;;21.30;100381.00;;;;2079643;28;20201;-51
2022/03/13 02:57:56;;;;;;;7.80;7.10;;;;;21.30;100373.00;;;;2079712;28;20220;-51
2022/03/13 02:58:57;;;;;;;8.10;7.40;;;;;21.30;100377.00;;;;2079661;28;20214;-51
2022/03/13 02:59:57;;;;;;;8.90;8.07;;;;;21.30;100372.00;;;;2078417;28;20239;-51
2022/03/13 03:00:58;;;;;;;8.30;7.53;;;;;21.30;100375.00;;;;2077887;28;20244;-51
2022/03/13 03:02:02;;;;;;;7.97;7.17;;;;;21.30;100378.00;;;;2078988;28;20967;-50
2022/03/13 03:03:02;;;;;;;7.68;7.07;;;;;21.30;100372.00;;;;2078841;28;20209;-51
2022/03/13 03:04:03;;;;;;;7.50;6.87;;;;;21.30;100376.00;;;;2079340;28;20213;-51
2022/03/13 03:05:06;;;;;;;8.23;7.53;;;;;21.30;100374.00;;;;2079240;28;20216;-51
2022/03/13 03:06:08;;;;;;;8.43;6.82;;;;;21.30;100378.00;;;;2078523;28;20221;-51
2022/03/13 03:07:08;;;;;;;7.90;7.20;;;;;21.30;100378.00;;;;2070043;28;20218;-51
2022/03/13 03:08:09;;;;;;;9.40;7.00;;;;;21.30;100378.00;;;;2069283;28;20306;-51
2022/03/13 03:09:09;;;;;;;7.73;7.13;;;;;21.20;100377.00;;;;2071413;28;20218;-51
2022/03/13 03:10:12;;;;;;;7.90;7.20;;;;;21.20;100385.00;;;;2070784;28;20218;-51
2022/03/13 03:11:13;;;;;;;7.55;6.85;;;;;21.20;100375.00;;;;2076817;28;20744;-51
2022/03/13 03:12:13;;;;;;;8.67;7.97;;;;;21.20;100381.00;;;;2077073;28;20233;-51
2022/03/13 03:13:14;;;;;;;8.03;7.27;;;;;21.20;100382.00;;;;2070976;28;20301;-51
2022/03/13 03:14:15;;;;;;;7.53;6.90;;;;;21.20;100390.00;;;;2070628;28;20214;-51
2022/03/13 03:15:17;;;;;;;7.83;7.13;;;;;21.20;100381.00;;;;2078176;28;20213;-51
2022/03/13 03:16:18;;;;;;;8.25;7.45;;;;;21.20;100380.00;;;;2078363;28;20217;-51
2022/03/13 03:17:18;;;;;;;7.70;7.00;;;;;21.20;100378.00;;;;2078822;28;20733;-52
2022/03/13 03:18:20;;;;;;;8.47;7.70;;;;;21.20;100379.00;;;;2079044;28;20216;-52
2022/03/13 03:19:20;;;;;;;7.90;7.20;;;;;21.20;100385.00;;;;2078671;28;20204;-51
2022/03/13 03:20:21;;;;;;;7.97;7.27;;;;;21.20;100394.00;;;;2078831;28;20604;-51
2022/03/13 03:21:22;;;;;;;7.53;6.85;;;;;21.20;100378.00;;;;2078940;28;20293;-51
2022/03/13 03:22:22;;;;;;;8.30;7.60;;;;;20.90;100394.00;;;;2079003;28;20210;-51
2022/03/13 03:23:22;;;;;;;7.23;6.63;;;;;21.20;100386.00;;;;2072882;28;20251;-51
2022/03/13 03:24:24;;;;;;;7.93;7.13;;;;;21.20;100390.00;;;;2072811;28;20229;-51
2022/03/13 03:25:25;;;;;;;8.18;7.40;;;;;21.20;100386.00;;;;2072835;28;20212;-51
2022/03/13 03:26:25;;;;;;;8.40;7.60;;;;;21.20;100390.00;;;;2078439;28;20217;-50
2022/03/13 03:27:28;;;;;;;8.10;7.30;;;;;21.20;100383.00;;;;2078793;28;20247;-51
2022/03/13 03:28:28;;;;;;;7.90;7.20;;;;;21.20;100377.00;;;;2079550;28;20217;-51
2022/03/13 03:29:29;;;;;;;7.63;6.93;;;;;21.20;100385.00;;;;2079762;28;20697;-51
2022/03/13 03:30:30;;;;;;;7.80;7.10;;;;;21.20;100386.00;;;;2079139;28;20712;-51
2022/03/13 03:31:30;;;;;;;8.00;7.30;;;;;21.20;100379.00;;;;2079088;28;20804;-51
2022/03/13 03:32:31;;;;;;;6.93;6.33;;;;;21.20;100386.00;;;;2079458;28;20205;-51
2022/03/13 03:33:31;;;;;;;7.40;6.80;;;;;21.20;100388.00;;;;2079470;28;20240;-51
2022/03/13 03:34:31;;;;;;;8.27;7.47;;;;;21.20;100374.00;;;;2075564;28;20230;-51
2022/03/13 03:35:32;;;;;;;7.33;6.73;;;;;21.10;100374.00;;;;2069962;28;20269;-51
2022/03/13 03:36:32;;;;;;;7.80;7.10;;;;;21.10;100379.00;;;;2070394;28;20260;-51
2022/03/13 03:37:33;;;;;;;8.00;7.30;;;;;21.10;100380.00;;;;2070421;28;20260;-51
2022/03/13 03:38:34;;;;;;;7.82;7.05;;;;;21.10;100374.00;;;;2071263;28;20809;-51
2022/03/13 03:39:34;;;;;;;7.43;6.83;;;;;21.10;100379.00;;;;2070814;28;20225;-51
2022/03/13 03:40:34;;;;;;;7.33;6.73;;;;;21.10;100373.00;;;;2070298;28;20280;-51
2022/03/13 03:41:35;;;;;;;7.57;6.87;;;;;21.10;100371.00;;;;2070697;28;20214;-51
2022/03/13 03:42:36;;;;;;;7.90;7.20;;;;;21.10;100366.00;;;;2070415;28;20280;-51
2022/03/13 03:43:36;;;;;;;8.00;7.30;;;;;21.10;100370.00;;;;2070848;28;20214;-50
2022/03/13 03:44:36;;;;;;;8.00;7.20;;;;;21.10;100374.00;;;;2069726;28;21350;-51
2022/03/13 03:45:37;;;;;;;8.20;7.40;;;;;21.10;100371.00;;;;2069571;28;20477;-51
2022/03/13 03:46:37;;;;;;;6.80;6.20;;;;;21.10;100371.00;;;;2069724;28;20285;-51
2022/03/13 03:47:38;;;;;;;7.33;6.63;;;;;21.10;100369.00;;;;2069673;28;20244;-51
2022/03/13 03:48:38;;;;;;;7.43;6.73;;;;;21.10;100357.00;;;;2070470;28;20523;-51
2022/03/13 03:49:38;;;;;;;8.00;7.30;;;;;21.10;100360.00;;;;2070537;28;20279;-51
2022/03/13 03:50:39;;;;;;;7.20;6.60;;;;;21.10;100366.00;;;;2070587;28;20214;-51
2022/03/13 03:51:39;;;;;;;7.47;6.77;;;;;21.10;100359.00;;;;2066969;28;20248;-51
2022/03/13 03:52:40;;;;;;;7.50;6.90;;;;;21.10;100368.00;;;;2078077;28;20318;-51
2022/03/13 03:53:40;;;;;;;7.03;6.43;;;;;21.10;100359.00;;;;2071939;28;20659;-51
2022/03/13 03:54:40;;;;;;;7.10;6.50;;;;;21.10;100357.00;;;;2070045;28;20230;-51
2022/03/13 03:55:41;;;;;;;7.33;6.73;;;;;21.10;100363.00;;;;2069369;28;20253;-51
2022/03/13 03:56:41;;;;;;;7.60;7.00;;;;;21.10;100371.00;;;;2070487;28;20273;-50
2022/03/13 03:57:41;;;;;;;7.67;7.00;;;;;21.10;100362.00;;;;2070298;28;20222;-51
2022/03/13 03:58:42;;;;;;;7.27;6.67;;;;;21.10;100366.00;;;;2069285;28;20718;-51
2022/03/13 03:59:42;;;;;;;8.33;7.63;;;;;21.10;100367.00;;;;2069699;28;20631;-51
2022/03/13 04:00:42;;;;;;;6.80;6.20;;;;;21.10;100367.00;;;;2070506;28;20221;-51
2022/03/13 04:01:43;;;;;;;7.00;6.40;;;;;21.10;100376.00;;;;2070847;28;20233;-51
2022/03/13 04:02:43;;;;;;;7.57;6.90;;;;;21.10;100369.00;;;;2070635;28;20268;-51
2022/03/13 04:03:44;;;;;;;7.17;6.50;;;;;21.00;100371.00;;;;2071173;28;20218;-51
2022/03/13 04:04:44;;;;;;;9.40;6.93;;;;;21.10;100372.00;;;;2070858;28;20223;-51
2022/03/13 04:05:44;;;;;;;6.67;6.07;;;;;21.00;100378.00;;;;2070121;28;20553;-51
2022/03/13 04:06:45;;;;;;;6.40;5.80;;;;;21.00;100375.00;;;;2070913;28;20222;-51
2022/03/13 04:07:45;;;;;;;7.47;6.87;;;;;21.00;100374.00;;;;2070364;28;20230;-51
2022/03/13 04:08:49;;;;;;;7.80;7.10;;;;;21.00;100372.00;;;;2072358;28;20607;-51
2022/03/13 04:09:49;;;;;;;7.55;6.85;;;;;21.00;100372.00;;;;2069701;28;20683;-51
2022/03/13 04:10:49;;;;;;;6.53;6.03;;;;;21.00;100374.00;;;;2070567;28;20218;-51
2022/03/13 04:11:51;;;;;;;7.77;7.07;;;;;21.00;100372.00;;;;2071807;28;20222;-51
2022/03/13 04:12:51;;;;;;;6.78;6.18;;;;;21.00;100366.00;;;;2069172;28;20217;-51
2022/03/13 04:13:52;;;;;;;7.03;6.43;;;;;21.00;100364.00;;;;2071112;28;20210;-51
2022/03/13 04:14:52;;;;;;;7.10;6.50;;;;;21.00;100367.00;;;;2070888;28;20214;-50
2022/03/13 04:15:53;;;;;;;7.87;7.17;;;;;21.00;100366.00;;;;2070128;28;20731;-51
2022/03/13 04:16:54;;;;;;;7.17;6.57;;;;;21.00;100302.00;;;;2070336;28;20281;-51
2022/03/13 04:17:55;;;;;;;7.25;6.65;;;;;21.00;100362.00;;;;2059314;28;20213;-51
2022/03/13 04:18:56;;;;;;;7.18;6.53;;;;;21.00;100359.00;;;;2078076;28;20217;-51
2022/03/13 04:19:58;;;;;;;7.30;6.60;;;;;21.00;100368.00;;;;2075142;28;20485;-51
2022/03/13 04:20:59;;;;;;;7.20;6.60;;;;;21.00;100364.00;;;;2070135;28;20996;-54
2022/03/13 04:21:59;;;;;;;7.32;6.72;;;;;21.00;100368.00;;;;2070759;28;20249;-51
2022/03/13 04:22:59;;;;;;;7.23;6.57;;;;;21.00;100362.00;;;;2066747;28;20219;-51
2022/03/13 04:24:00;;;;;;;6.97;6.37;;;;;21.00;100362.00;;;;2070953;28;20272;-51
2022/03/13 04:25:00;;;;;;;6.40;5.80;;;;;21.00;100362.00;;;;2070811;28;20272;-51
2022/03/13 04:26:01;;;;;;;7.43;6.73;;;;;21.00;100355.00;;;;2070187;28;20217;-51
2022/03/13 04:27:02;;;;;;;7.70;7.00;;;;;21.00;100349.00;;;;2070262;28;20214;-51
2022/03/13 04:28:04;;;;;;;6.93;6.33;;;;;21.00;100351.00;;;;2068242;28;20249;-51
2022/03/13 04:29:06;;;;;;;6.80;6.18;;;;;21.00;100350.00;;;;2070905;28;20854;-51
2022/03/13 04:30:08;;;;;;;7.18;6.57;;;;;21.00;100356.00;;;;2075399;28;20227;-51
2022/03/13 04:31:08;;;;;;;6.60;6.00;;;;;21.00;100351.00;;;;2078812;28;20581;-51
2022/03/13 04:32:09;;;;;;;7.17;6.47;;;;;21.00;100350.00;;;;2078250;28;20267;-51
2022/03/13 04:33:09;;;;;;;6.80;6.10;;;;;21.00;100350.00;;;;2074202;28;20213;-51
2022/03/13 04:34:10;;;;;;;7.33;6.73;;;;;21.00;100358.00;;;;2073687;28;20682;-51
2022/03/13 04:35:10;;;;;;;7.23;6.60;;;;;21.00;100354.00;;;;2072541;28;20249;-50
2022/03/13 04:36:13;;;;;;;7.10;6.50;;;;;20.90;100351.00;;;;2069021;28;20465;-51
2022/03/13 04:37:16;;;;;;;7.50;6.80;;;;;20.90;100364.00;;;;2068184;28;20685;-51
2022/03/13 04:38:16;;;;;;;7.63;6.85;;;;;20.90;100350.00;;;;2068206;28;20202;-51
2022/03/13 04:39:17;;;;;;;7.70;6.00;;;;;20.90;100347.00;;;;2070017;28;20766;-50
2022/03/13 04:40:18;;;;;;;6.90;6.35;;;;;21.00;100352.00;;;;2070169;28;20214;-51
2022/03/13 04:41:18;;;;;;;7.37;6.67;;;;;21.00;100350.00;;;;2070142;28;20211;-51
2022/03/13 04:42:19;;;;;;;7.70;6.57;;;;;20.90;100358.00;;;;2070923;28;20209;-51
2022/03/13 04:43:20;;;;;;;6.80;6.20;;;;;20.90;100354.00;;;;2067677;28;20823;-51
2022/03/13 04:44:21;;;;;;;6.65;6.05;;;;;20.90;100360.00;;;;2070298;28;20214;-50
2022/03/13 04:45:22;;;;;;;6.60;6.07;;;;;20.90;100363.00;;;;2069461;28;20689;-51
2022/03/13 04:46:23;;;;;;;6.90;6.30;;;;;20.90;100366.00;;;;2070380;28;20779;-51
2022/03/13 04:47:30;;;;;;;7.27;6.57;;;;;20.90;100367.00;;;;2069002;28;20233;-51
2022/03/13 04:48:32;;;;;;;7.30;6.55;;;;;20.90;100368.00;;;;2070111;28;20292;-51
2022/03/13 04:49:33;;;;;;;7.13;6.43;;;;;20.90;100363.00;;;;2069502;28;20580;-51
2022/03/13 04:50:33;;;;;;;6.70;6.03;;;;;20.90;100364.00;;;;2069959;28;20218;-51
2022/03/13 04:51:34;;;;;;;6.97;6.37;;;;;20.90;100366.00;;;;2069294;28;20234;-55
2022/03/13 04:52:34;;;;;;;7.10;6.50;;;;;20.90;100375.00;;;;2069069;28;20284;-52
2022/03/13 04:53:34;;;;;;;7.00;6.30;;;;;20.90;100376.00;;;;2069108;28;20222;-52
2022/03/13 04:54:35;;;;;;;6.70;6.10;;;;;20.90;100371.00;;;;2070645;28;20268;-53
2022/03/13 04:55:35;;;;;;;7.00;6.40;;;;;20.90;100376.00;;;;2069818;28;20250;-52
2022/03/13 04:56:36;;;;;;;7.53;6.83;;;;;20.90;100372.00;;;;2069893;28;20234;-51
2022/03/13 04:57:36;;;;;;;6.83;6.00;;;;;20.90;100374.00;;;;2057170;28;20671;-51
2022/03/13 04:58:36;;;;;;;7.27;6.60;;;;;20.80;100368.00;;;;2063693;28;20229;-51
2022/03/13 04:59:37;;;;;;;7.40;6.73;;;;;20.90;100380.00;;;;2078062;28;20226;-51